Time;durP1;ratioP1;P1;durP2;ratioP2;P2;SDS_P1;SDS_P2;PMS_P1;PMS_P2;Temp;Humidity;BMP_temperature;BMP_pressure;BME280_temperature;BME280_humidity;BME280_pressure;Samples;Min_cycle;Max_cycle;Signal;HPM_P1;HPM_P2
2022/09/15 00:00:08;;;;;;;6.70;4.83;;;18.10;99.90;19.90;95948.00;;;;5032958;28;20221;-86
2022/09/15 00:02:57;;;;;;;6.23;4.67;;;18.30;99.90;19.90;95949.00;;;;5027655;28;20201;-85
2022/09/15 00:05:46;;;;;;;5.70;5.20;;;18.30;99.90;19.90;95929.00;;;;5034554;28;20752;-85
2022/09/15 00:08:35;;;;;;;9.00;5.20;;;18.30;99.90;19.90;95920.00;;;;5031966;28;20217;-87
2022/09/15 00:11:28;;;;;;;6.93;5.33;;;18.40;99.90;19.60;95919.00;;;;5033504;28;20189;-84
2022/09/15 00:14:17;;;;;;;5.63;5.17;;;18.30;99.90;19.50;95919.00;;;;5032530;28;20244;-86
2022/09/15 00:17:05;;;;;;;6.40;4.63;;;18.30;99.90;19.80;95907.00;;;;5031059;28;20225;-85
2022/09/15 00:19:54;;;;;;;4.67;4.27;;;18.30;99.90;19.80;95908.00;;;;5042043;28;20205;-84
2022/09/15 00:22:43;;;;;;;5.30;4.90;;;18.30;99.90;19.70;95901.00;;;;5039269;28;20205;-85
2022/09/15 00:25:32;;;;;;;5.40;4.67;;;18.30;99.90;19.20;95899.00;;;;5032744;28;20221;-84
2022/09/15 00:28:23;;;;;;;5.57;4.53;;;18.30;99.90;19.00;95917.00;;;;5032439;28;20217;-83
2022/09/15 00:31:17;;;;;;;6.30;4.70;;;18.10;99.90;18.90;95919.00;;;;5033718;28;20209;-84
2022/09/15 00:34:06;;;;;;;5.70;5.20;;;18.10;99.90;19.20;95914.00;;;;5013655;28;20202;-85
2022/09/15 00:36:55;;;;;;;5.75;4.70;;;18.00;99.90;19.30;95916.00;;;;5018244;28;20621;-85
2022/09/15 00:39:44;;;;;;;5.40;4.90;;;18.00;99.90;19.40;95921.00;;;;5032500;28;20193;-84
2022/09/15 00:42:32;;;;;;;9.20;5.57;;;18.00;99.90;19.60;95922.00;;;;5031107;28;20209;-85
2022/09/15 00:45:23;;;;;;;6.77;5.37;;;18.10;99.90;19.80;95926.00;;;;5025419;28;20217;-83
2022/09/15 00:48:15;;;;;;;7.23;5.03;;;18.10;99.90;19.90;95917.00;;;;5016074;28;20314;-85
2022/09/15 00:51:06;;;;;;;5.03;4.50;;;18.20;99.90;19.60;95920.00;;;;5023128;28;20200;-85
2022/09/15 00:53:57;;;;;;;4.80;4.40;;;18.20;99.90;19.70;95920.00;;;;5027214;28;20197;-83
2022/09/15 00:56:49;;;;;;;11.70;4.97;;;18.20;99.90;19.80;95930.00;;;;5031280;28;20692;-83
2022/09/15 00:59:41;;;;;;;6.07;4.27;;;18.30;99.90;19.80;95918.00;;;;5031578;28;20263;-85
2022/09/15 01:02:34;;;;;;;5.87;4.50;;;18.30;99.90;19.90;95903.00;;;;5019679;28;20205;-85
2022/09/15 01:05:28;;;;;;;6.27;4.43;;;18.30;99.90;19.90;95911.00;;;;5012969;28;20226;-85
2022/09/15 01:08:24;;;;;;;7.27;3.80;;;18.30;99.90;19.60;95931.00;;;;5027303;28;20209;-83
2022/09/15 01:11:15;;;;;;;4.93;4.37;;;18.30;99.90;19.00;95924.00;;;;5030674;28;20201;-85
2022/09/15 01:14:04;;;;;;;5.60;4.93;;;18.20;99.90;19.00;95935.00;;;;5032550;28;20205;-85
2022/09/15 01:17:02;;;;;;;7.27;4.70;;;18.00;99.90;19.40;95937.00;;;;5048660;23;20233;-72
2022/09/15 01:20:51;;;;;;;10.67;5.40;;;18.00;99.90;19.70;95928.00;;;;4988449;28;20301;-72
2022/09/15 01:24:20;;;;;;;5.20;4.57;;;18.10;99.90;19.80;95935.00;;;;4988840;28;20702;-73
2022/09/15 01:27:45;;;;;;;4.43;4.13;;;18.10;99.90;19.90;95941.00;;;;4991991;28;20217;-73
2022/09/15 01:30:37;;;;;;;4.00;3.70;;;18.20;99.90;19.80;95960.00;;;;4972381;28;20199;-73
2022/09/15 01:33:35;;;;;;;4.60;4.20;;;18.20;99.90;19.90;95956.00;;;;4986116;28;20222;-72
2022/09/15 01:36:33;;;;;;;4.73;3.67;;;18.30;99.90;19.90;95952.00;;;;4989763;28;20229;-73
2022/09/15 01:39:25;;;;;;;3.80;3.50;;;18.30;99.90;19.90;95955.00;;;;4991023;28;20195;-72
2022/09/15 01:42:16;;;;;;;3.80;3.50;;;18.30;99.90;19.90;95962.00;;;;4996393;28;20613;-72
2022/09/15 01:45:10;;;;;;;5.23;3.83;;;18.30;99.90;19.80;95961.00;;;;5010035;28;20234;-73
2022/09/15 01:48:03;;;;;;;6.67;3.97;;;18.30;99.90;19.90;95960.00;;;;5018928;23;20372;-88
2022/09/15 01:50:56;;;;;;;6.03;3.70;;;18.30;99.90;19.80;95961.00;;;;5028176;28;20217;-87
2022/09/15 01:53:46;;;;;;;4.10;3.60;;;18.30;99.90;19.80;95954.00;;;;5029919;28;20323;-88
2022/09/15 01:56:37;;;;;;;5.53;3.80;;;18.30;99.90;19.60;95940.00;;;;5024372;28;20213;-89
2022/09/15 01:59:26;;;;;;;4.50;3.50;;;18.30;99.90;19.50;95946.00;;;;5029988;28;20621;-88
2022/09/15 02:02:21;;;;;;;5.00;4.30;;;18.20;99.90;19.70;95938.00;;;;5041054;23;20240;-73
2022/09/15 02:05:20;;;;;;;5.40;4.30;;;18.20;99.90;19.60;95934.00;;;;5010067;28;20279;-73
2022/09/15 02:08:14;;;;;;;3.97;3.57;;;18.20;99.90;19.40;95936.00;;;;5008679;28;20280;-72
2022/09/15 02:11:14;;;;;;;5.03;3.97;;;18.10;99.90;19.30;95930.00;;;;5029444;28;20205;-72
2022/09/15 02:14:10;;;;;;;4.57;4.17;;;18.10;99.90;19.50;95932.00;;;;5028270;28;20221;-72
2022/09/15 02:17:00;;;;;;;3.80;3.50;;;18.00;99.90;19.50;95925.00;;;;5023310;28;20210;-73
2022/09/15 02:19:52;;;;;;;7.83;3.83;;;18.00;99.90;19.20;95920.00;;;;5028240;28;20268;-72
2022/09/15 02:22:49;;;;;;;5.90;3.63;;;18.00;99.90;19.10;95922.00;;;;5024990;28;20244;-73
2022/09/15 02:25:43;;;;;;;3.87;3.37;;;17.90;99.90;19.00;95917.00;;;;5029356;28;20201;-73
2022/09/15 02:28:35;;;;;;;4.37;3.47;;;17.80;99.90;19.00;95925.00;;;;5011672;28;20250;-72
2022/09/15 02:31:25;;;;;;;5.10;3.73;;;17.80;99.90;19.20;95922.00;;;;5023395;28;20205;-73
2022/09/15 02:34:19;;;;;;;4.20;3.90;;;17.80;99.90;19.30;95924.00;;;;5027623;28;20621;-74
2022/09/15 02:37:10;;;;;;;3.50;3.10;;;17.80;99.90;19.30;95917.00;;;;5027900;28;20692;-73
2022/09/15 02:40:01;;;;;;;4.20;2.83;;;17.80;99.90;19.40;95924.00;;;;5028113;28;20251;-73
2022/09/15 02:42:56;;;;;;;3.87;3.00;;;17.80;99.90;19.40;95929.00;;;;5026711;28;20217;-73
2022/09/15 02:45:44;;;;;;;3.90;3.13;;;17.80;99.90;19.40;95937.00;;;;5029510;28;20250;-73
2022/09/15 02:48:33;;;;;;;3.77;2.37;;;17.80;99.90;19.40;95932.00;;;;5028062;28;20217;-73
2022/09/15 02:51:22;;;;;;;3.60;3.10;;;17.80;99.90;19.10;95928.00;;;;5027262;28;20342;-72
2022/09/15 02:54:11;;;;;;;4.60;3.63;;;17.80;99.90;19.00;95927.00;;;;5025189;28;20256;-73
2022/09/15 02:57:01;;;;;;;4.37;3.17;;;17.70;99.90;18.70;95933.00;;;;5028085;28;20271;-73
2022/09/15 03:02:56;;;;;;;4.50;3.40;;;17.60;99.90;18.60;95937.00;;;;5026566;28;20237;-72
2022/09/15 03:05:45;;;;;;;2.93;2.63;;;17.50;99.90;18.40;95941.00;;;;5029350;28;20197;-72
2022/09/15 03:08:33;;;;;;;3.13;2.67;;;17.40;99.90;18.60;95941.00;;;;5027560;28;20216;-73
2022/09/15 03:11:25;;;;;;;5.07;2.63;;;17.40;99.90;18.70;95941.00;;;;5027132;28;20235;-72
2022/09/15 03:14:15;;;;;;;3.50;3.20;;;17.30;99.90;18.80;95939.00;;;;5028082;28;20213;-72
2022/09/15 03:17:04;;;;;;;7.93;3.10;;;17.30;99.90;18.90;95936.00;;;;5028152;28;20268;-73
2022/09/15 03:19:53;;;;;;;4.53;2.73;;;17.30;99.90;18.90;95933.00;;;;5028464;28;20208;-72
2022/09/15 03:22:42;;;;;;;3.07;2.77;;;17.30;99.90;18.90;95929.00;;;;5027398;28;20204;-73
2022/09/15 03:25:32;;;;;;;3.83;2.73;;;17.30;99.90;18.50;95934.00;;;;5031268;28;20213;-73
2022/09/15 03:28:21;;;;;;;3.60;2.97;;;17.30;99.90;18.60;95937.00;;;;5021085;28;20302;-72
2022/09/15 03:31:11;;;;;;;5.73;2.90;;;17.30;99.90;18.60;95931.00;;;;5048915;28;20203;-72
2022/09/15 03:34:00;;;;;;;4.17;2.70;;;17.30;99.90;18.50;95926.00;;;;5029527;28;20204;-73
2022/09/15 03:36:48;;;;;;;2.60;2.40;;;17.20;99.90;18.60;95920.00;;;;5032208;28;20217;-73
2022/09/15 03:39:37;;;;;;;3.70;2.97;;;17.20;99.90;18.70;95925.00;;;;5032293;28;20201;-72
2022/09/15 03:42:26;;;;;;;2.93;2.73;;;17.20;99.90;18.70;95911.00;;;;5038846;28;20201;-72
2022/09/15 03:45:15;;;;;;;2.50;2.30;;;17.20;99.90;18.70;95900.00;;;;5052368;28;20721;-72
2022/09/15 03:48:05;;;;;;;2.77;2.53;;;17.20;99.90;18.50;95882.00;;;;5036325;28;20696;-72
2022/09/15 03:50:54;;;;;;;5.23;4.10;;;17.20;99.90;18.30;95873.00;;;;5031819;28;20295;-72
2022/09/15 03:53:43;;;;;;;2.87;2.60;;;17.10;99.90;18.10;95876.00;;;;5028811;28;20205;-72
2022/09/15 03:56:33;;;;;;;3.33;2.63;;;17.00;99.90;18.20;95884.00;;;;5031697;28;20229;-72
2022/09/15 03:59:22;;;;;;;2.37;2.13;;;17.00;99.90;18.20;95891.00;;;;5032430;28;20201;-73
2022/09/15 04:02:10;;;;;;;3.87;2.93;;;16.90;99.90;17.90;95882.00;;;;5029313;28;20623;-72
2022/09/15 04:05:01;;;;;;;2.67;2.47;;;16.90;99.90;18.10;95882.00;;;;5031954;28;20204;-73
2022/09/15 04:07:50;;;;;;;7.73;2.60;;;16.80;99.90;18.10;95880.00;;;;5031134;28;20221;-72
2022/09/15 04:10:40;;;;;;;4.83;3.20;;;16.70;99.90;17.90;95883.00;;;;5031665;28;20210;-72
2022/09/15 04:13:28;;;;;;;2.93;2.57;;;16.70;99.90;17.50;95883.00;;;;5012767;28;20205;-72
2022/09/15 04:16:19;;;;;;;5.03;2.27;;;16.60;99.90;17.80;95863.00;;;;5017883;28;21058;-72
2022/09/15 04:19:08;;;;;;;3.87;2.70;;;16.60;99.90;18.00;95873.00;;;;5030499;28;20232;-73
2022/09/15 04:21:58;;;;;;;2.73;2.47;;;16.60;99.90;17.90;95884.00;;;;5029911;28;20201;-73
2022/09/15 04:24:47;;;;;;;3.27;2.70;;;16.60;99.90;18.10;95871.00;;;;5031961;28;20196;-73
2022/09/15 04:27:37;;;;;;;4.97;2.83;;;16.60;99.90;18.10;95873.00;;;;5029867;28;20278;-73
2022/09/15 04:30:26;;;;;;;2.13;1.93;;;16.60;99.90;18.10;95881.00;;;;5026189;28;20201;-73
2022/09/15 04:33:14;;;;;;;4.47;2.47;;;16.60;99.90;18.20;95877.00;;;;5027865;28;20549;-72
2022/09/15 04:36:06;;;;;;;3.43;2.63;;;16.60;99.90;18.20;95864.00;;;;5028995;28;20284;-72
2022/09/15 04:38:57;;;;;;;5.17;2.63;;;16.70;99.90;18.20;95872.00;;;;5024028;28;20240;-73
2022/09/15 04:41:46;;;;;;;4.27;2.70;;;16.70;99.90;18.20;95873.00;;;;5023976;28;20233;-72
2022/09/15 04:44:35;;;;;;;3.67;2.43;;;16.70;99.90;18.00;95895.00;;;;5019632;28;20811;-73
2022/09/15 04:47:23;;;;;;;3.03;2.43;;;16.60;99.90;17.80;95902.00;;;;5011686;28;20214;-72
2022/09/15 04:50:12;;;;;;;4.03;2.60;;;16.60;99.90;17.80;95907.00;;;;5029472;28;20209;-72
2022/09/15 04:53:00;;;;;;;3.87;2.17;;;16.60;99.90;17.80;95909.00;;;;5027396;28;20197;-72
2022/09/15 04:55:50;;;;;;;4.93;1.80;;;16.60;99.90;17.60;95907.00;;;;5026273;28;20240;-73
2022/09/15 04:58:41;;;;;;;1.63;1.53;;;16.50;99.90;17.50;95906.00;;;;5020920;28;20256;-72
2022/09/15 05:01:32;;;;;;;3.37;2.27;;;16.40;99.90;17.80;95925.00;;;;5025800;28;20617;-72
2022/09/15 05:04:21;;;;;;;4.53;2.30;;;16.40;99.90;17.80;95933.00;;;;5030116;28;20200;-72
2022/09/15 05:07:10;;;;;;;2.13;1.93;;;16.40;99.90;17.90;95928.00;;;;5030132;28;20592;-73
2022/09/15 05:09:58;;;;;;;3.73;2.00;;;16.40;99.90;18.00;95929.00;;;;5030852;28;20226;-72
2022/09/15 05:12:48;;;;;;;4.43;2.57;;;16.40;99.90;17.40;95924.00;;;;5022995;28;20491;-73
2022/09/15 05:15:37;;;;;;;2.40;1.90;;;16.50;99.90;17.60;95931.00;;;;5025628;28;20252;-72
2022/09/15 05:18:26;;;;;;;7.20;3.03;;;16.40;99.90;17.70;95941.00;;;;5022435;28;20217;-72
2022/09/15 05:21:18;;;;;;;2.80;2.17;;;16.50;99.90;17.80;95942.00;;;;5048489;28;20235;-72
2022/09/15 05:24:07;;;;;;;2.73;2.30;;;16.50;99.90;18.20;95924.00;;;;5017631;28;20233;-72
2022/09/15 05:26:56;;;;;;;2.73;2.33;;;16.50;99.90;18.20;95933.00;;;;5023656;28;20216;-72
2022/09/15 05:29:46;;;;;;;2.03;1.83;;;16.50;99.90;18.10;95940.00;;;;5025480;28;20216;-72
2022/09/15 05:32:34;;;;;;;1.70;1.60;;;16.60;99.90;18.20;95944.00;;;;5023323;28;20193;-72
2022/09/15 05:35:23;;;;;;;2.77;2.10;;;16.60;99.90;18.30;95966.00;;;;5030687;28;20212;-72
2022/09/15 05:38:12;;;;;;;2.93;1.90;;;16.60;99.90;18.10;95991.00;;;;5027233;28;20252;-72
2022/09/15 05:41:04;;;;;;;1.73;1.63;;;16.70;99.90;17.70;95991.00;;;;5029562;28;20197;-73
2022/09/15 05:43:55;;;;;;;2.43;1.93;;;16.60;99.90;17.60;95997.00;;;;5010665;28;20198;-72
2022/09/15 05:46:45;;;;;;;3.90;2.00;;;16.50;99.90;17.50;95996.00;;;;5014377;28;20201;-72
2022/09/15 05:49:34;;;;;;;2.90;1.97;;;16.50;99.90;17.80;95991.00;;;;5030085;28;20205;-71
2022/09/15 05:52:23;;;;;;;2.53;2.43;;;16.40;99.90;17.60;95986.00;;;;5017055;28;20298;-71
2022/09/15 05:55:11;;;;;;;1.93;1.83;;;16.50;99.90;17.20;95997.00;;;;5026097;28;20198;-71
2022/09/15 05:58:00;;;;;;;2.03;1.83;;;16.30;99.90;17.60;95986.00;;;;5028030;28;20348;-73
2022/09/15 06:00:48;;;;;;;1.93;1.83;;;16.30;99.90;18.00;96006.00;;;;5028041;28;20198;-72
2022/09/15 06:03:39;;;;;;;2.43;2.23;;;16.40;99.90;18.30;95994.00;;;;5008376;28;20205;-72
2022/09/15 06:06:28;;;;;;;4.90;2.00;;;16.50;99.90;18.50;95990.00;;;;5010926;28;20252;-72
2022/09/15 06:09:17;;;;;;;3.23;2.30;;;16.60;99.90;18.60;95970.00;;;;5029097;28;20588;-72
2022/09/15 06:12:06;;;;;;;2.90;2.07;;;16.70;99.90;18.50;95973.00;;;;5028681;28;20251;-72
2022/09/15 06:14:55;;;;;;;1.97;1.70;;;16.80;99.90;18.40;95981.00;;;;5029856;28;20205;-72
2022/09/15 06:17:44;;;;;;;2.07;1.67;;;16.90;99.90;18.30;95990.00;;;;5022962;28;20229;-73
2022/09/15 06:20:35;;;;;;;1.60;1.40;;;16.90;99.90;18.20;95983.00;;;;5029542;28;20204;-72
2022/09/15 06:23:24;;;;;;;3.27;1.83;;;16.90;99.90;18.20;95992.00;;;;5028070;28;20205;-72
2022/09/15 06:26:15;;;;;;;6.70;2.00;;;16.80;99.90;18.30;96004.00;;;;5029058;28;20201;-72
2022/09/15 06:29:05;;;;;;;3.93;1.47;;;16.80;99.90;18.40;95996.00;;;;5028544;28;20625;-72
2022/09/15 06:31:55;;;;;;;2.13;1.70;;;16.90;99.90;18.50;95997.00;;;;5025188;28;20244;-72
2022/09/15 06:34:44;;;;;;;2.07;1.77;;;17.00;99.90;18.50;95986.00;;;;5009254;28;20198;-72
2022/09/15 06:37:35;;;;;;;2.30;1.63;;;17.00;99.90;18.20;95974.00;;;;5018944;28;20239;-71
2022/09/15 06:40:24;;;;;;;2.27;2.00;;;17.00;99.90;18.30;95987.00;;;;5028781;28;20201;-72
2022/09/15 06:43:12;;;;;;;2.93;2.00;;;17.00;99.90;18.50;95994.00;;;;5026722;28;20201;-72
2022/09/15 06:46:06;;;;;;;7.33;4.87;;;17.00;99.90;18.40;95975.00;;;;5029995;28;20204;-73
2022/09/15 06:48:55;;;;;;;7.83;4.70;;;17.00;99.90;18.50;95976.00;;;;5010606;28;20217;-72
2022/09/15 06:51:44;;;;;;;6.70;5.20;;;17.10;99.90;19.00;95967.00;;;;5023234;28;20676;-72
2022/09/15 06:54:34;;;;;;;7.73;5.23;;;17.20;99.90;19.00;95979.00;;;;5026834;28;20689;-73
2022/09/15 06:57:23;;;;;;;5.57;4.87;;;17.30;99.90;18.60;95989.00;;;;5028930;28;20272;-72
2022/09/15 07:00:13;;;;;;;3.97;3.17;;;17.30;99.90;18.30;95993.00;;;;5028937;28;20193;-72
2022/09/15 07:03:01;;;;;;;10.70;6.17;;;17.30;99.90;18.40;95972.00;;;;5012795;28;20214;-72
2022/09/15 07:05:50;;;;;;;3.70;2.87;;;17.20;99.90;19.20;95963.00;;;;5009987;28;20198;-73
2022/09/15 07:08:40;;;;;;;4.37;3.30;;;17.30;99.90;19.40;95965.00;;;;5027173;28;20378;-72
2022/09/15 07:11:31;;;;;;;5.97;2.80;;;17.50;99.90;19.20;95980.00;;;;5027051;28;20201;-72
2022/09/15 07:14:19;;;;;;;3.17;2.27;;;17.60;99.90;18.80;95971.00;;;;5027905;28;20216;-72
2022/09/15 07:17:08;;;;;;;2.27;2.07;;;17.60;99.90;19.00;95964.00;;;;5027950;28;20221;-73
2022/09/15 07:19:57;;;;;;;8.93;1.77;;;17.60;99.90;19.20;95973.00;;;;5037960;28;20680;-71
2022/09/15 07:22:45;;;;;;;4.90;1.63;;;17.60;99.90;19.20;95975.00;;;;5047726;28;20201;-72
2022/09/15 07:25:34;;;;;;;2.17;1.93;;;17.70;99.90;19.30;95964.00;;;;5047491;28;20189;-72
2022/09/15 07:28:24;;;;;;;1.87;1.70;;;17.80;99.90;19.30;95965.00;;;;5043721;28;20379;-72
2022/09/15 07:31:17;;;;;;;2.90;1.53;;;17.80;99.90;19.60;95965.00;;;;5027867;28;20205;-72
2022/09/15 07:34:07;;;;;;;2.87;1.97;;;17.90;99.90;19.90;95972.00;;;;5028301;28;20201;-72
2022/09/15 07:36:55;;;;;;;2.00;1.53;;;18.10;99.90;20.00;95971.00;;;;5022497;28;20201;-72
2022/09/15 07:39:44;;;;;;;2.07;1.53;;;18.20;99.90;20.00;95959.00;;;;5009686;28;20288;-71
2022/09/15 07:42:32;;;;;;;3.23;1.80;;;18.30;99.90;20.30;95961.00;;;;5017110;28;20201;-71
2022/09/15 07:45:24;;;;;;;2.17;1.60;;;18.50;99.90;20.40;95962.00;;;;5028066;28;20205;-71
2022/09/15 07:48:13;;;;;;;2.23;2.03;;;18.60;99.90;20.70;95947.00;;;;5034608;23;20232;-84
2022/09/15 07:51:01;;;;;;;2.20;1.77;;;18.70;99.90;20.90;95949.00;;;;5028938;28;20224;-86
2022/09/15 07:53:51;;;;;;;1.63;1.53;;;18.90;99.90;20.70;95942.00;;;;5028811;28;20190;-84
2022/09/15 07:56:40;;;;;;;4.53;2.10;;;19.10;99.90;20.70;95935.00;;;;5028718;28;20197;-84
2022/09/15 07:59:29;;;;;;;2.70;2.20;;;19.20;99.90;21.30;95932.00;;;;5035246;23;20633;-88
2022/09/15 08:02:21;;;;;;;1.97;1.87;;;19.40;99.90;21.30;95929.00;;;;4979951;28;20243;-87
2022/09/15 08:05:10;;;;;;;8.73;4.00;;;19.60;99.90;21.60;95928.00;;;;4968444;28;20200;-88
2022/09/15 08:07:59;;;;;;;4.97;2.30;;;19.70;99.90;22.20;95927.00;;;;4963645;28;20720;-88
2022/09/15 08:10:47;;;;;;;4.70;2.93;;;20.00;99.90;22.60;95914.00;;;;4969508;28;20196;-89
2022/09/15 08:13:36;;;;;;;3.23;2.20;;;20.30;99.90;22.10;95920.00;;;;4972796;28;20234;-87
2022/09/15 08:16:25;;;;;;;4.73;2.10;;;20.50;99.90;22.40;95929.00;;;;4972207;28;20199;-88
2022/09/15 08:19:15;;;;;;;5.00;1.90;;;20.60;99.90;22.30;95932.00;;;;4972103;28;20242;-88
2022/09/15 08:22:04;;;;;;;5.20;2.07;;;20.80;99.90;22.20;95932.00;;;;4972132;28;20893;-88
2022/09/15 08:24:53;;;;;;;2.83;1.97;;;20.80;99.90;22.70;95926.00;;;;4971848;28;20218;-88
2022/09/15 08:27:42;;;;;;;3.33;2.00;;;20.90;99.90;23.00;95927.00;;;;4971635;28;20203;-87
2022/09/15 08:30:30;;;;;;;3.47;2.20;;;21.00;99.90;23.20;95924.00;;;;4953968;28;20914;-88
2022/09/15 08:33:19;;;;;;;4.73;1.87;;;21.10;99.90;23.20;95928.00;;;;4970982;28;20278;-88
2022/09/15 08:36:10;;;;;;;2.90;2.07;;;21.20;99.90;23.20;95930.00;;;;4973458;28;20673;-88
2022/09/15 08:38:59;;;;;;;3.10;1.90;;;21.30;99.90;23.20;95934.00;;;;4968395;28;20707;-88
2022/09/15 08:41:52;;;;;;;4.37;1.70;;;21.20;99.90;23.10;95938.00;;;;4977173;28;20300;-88
2022/09/15 08:44:48;;;;;;;2.60;2.13;;;21.30;99.90;23.00;95924.00;;;;4993095;28;20199;-88
2022/09/15 08:47:41;;;;;;;2.50;2.30;;;21.30;99.90;23.20;95920.00;;;;4991067;28;20634;-88
2022/09/15 08:50:37;;;;;;;3.20;2.17;;;21.30;99.90;23.20;95923.00;;;;4987330;28;20199;-88
2022/09/15 08:53:32;;;;;;;2.93;2.33;;;21.30;99.90;23.00;95919.00;;;;4972237;28;20215;-88
2022/09/15 08:56:21;;;;;;;3.30;1.97;;;21.30;99.90;22.90;95920.00;;;;4972509;28;20231;-89
2022/09/15 08:59:14;;;;;;;5.17;2.00;;;21.20;99.90;22.80;95911.00;;;;4972148;28;20235;-88
2022/09/15 09:02:44;;;;;;;1.50;1.40;;;21.20;99.90;23.10;95895.00;;;;5100322;27;20725;-73
2022/09/15 09:05:50;;;;;;;4.97;2.13;;;21.20;99.90;23.40;95888.00;;;;5084323;28;20203;-73
2022/09/15 09:09:12;;;;;;;3.57;2.20;;;21.30;99.90;23.30;95886.00;;;;5072412;28;20320;-73
2022/09/15 09:12:34;;;;;;;2.83;1.97;;;21.40;99.90;23.40;95882.00;;;;5083544;28;20282;-73
2022/09/15 09:15:35;;;;;;;5.40;2.83;;;21.40;99.90;23.30;95886.00;;;;5085159;28;20196;-73
2022/09/15 09:19:14;;;;;;;3.37;1.80;;;21.40;99.90;23.00;95870.00;;;;5071949;28;20215;-73
2022/09/15 09:22:09;;;;;;;3.67;1.90;;;21.40;99.90;22.90;95863.00;;;;5069638;28;20230;-73
2022/09/15 09:25:01;;;;;;;5.17;2.07;;;21.40;99.90;23.00;95853.00;;;;5077946;28;20195;-73
2022/09/15 09:27:54;;;;;;;3.13;1.77;;;21.30;99.90;23.10;95851.00;;;;5084260;28;20225;-73
2022/09/15 09:30:42;;;;;;;7.40;1.80;;;21.30;99.90;22.80;95862.00;;;;5076559;28;20207;-73
2022/09/15 09:33:40;;;;;;;3.03;2.37;;;21.30;99.90;22.80;95862.00;;;;5077106;28;20196;-73
2022/09/15 09:36:33;;;;;;;2.20;2.00;;;21.30;99.90;22.80;95862.00;;;;5069366;28;20199;-73
2022/09/15 09:39:22;;;;;;;2.33;1.90;;;21.20;99.90;22.70;95864.00;;;;5080479;28;20203;-73
2022/09/15 09:42:17;;;;;;;9.50;2.33;;;21.20;99.90;23.00;95875.00;;;;5085971;28;20716;-73
2022/09/15 09:45:07;;;;;;;3.87;1.57;;;21.20;99.90;22.60;95884.00;;;;5095100;28;20199;-73
2022/09/15 09:48:03;;;;;;;3.67;2.07;;;21.10;99.90;22.40;95889.00;;;;5078538;28;20235;-74
2022/09/15 09:50:51;;;;;;;7.00;2.07;;;21.10;99.90;22.40;95891.00;;;;5079696;28;20579;-73
2022/09/15 09:53:41;;;;;;;5.90;2.60;;;20.90;99.90;22.60;95888.00;;;;5070014;28;20710;-74
2022/09/15 09:56:30;;;;;;;3.00;1.70;;;20.90;99.90;22.70;95892.00;;;;5084519;28;20650;-73
2022/09/15 09:59:41;;;;;;;3.33;1.63;;;20.90;99.90;22.50;95904.00;;;;5084053;28;20211;-74
2022/09/15 10:02:30;;;;;;;2.70;1.80;;;20.90;99.90;22.30;95911.00;;;;5082416;28;20253;-73
2022/09/15 10:05:20;;;;;;;3.33;1.60;;;20.80;99.90;22.00;95918.00;;;;5077896;28;20211;-74
2022/09/15 10:08:18;;;;;;;2.43;1.97;;;20.70;99.90;22.10;95925.00;;;;5083706;28;20215;-73
2022/09/15 10:11:11;;;;;;;4.77;2.37;;;20.50;99.90;22.10;95927.00;;;;5080658;28;20200;-74
2022/09/15 10:13:59;;;;;;;1.33;1.23;;;20.50;99.90;22.00;95923.00;;;;5065643;28;20285;-74
2022/09/15 10:17:03;;;;;;;1.17;1.07;;;20.40;99.90;21.50;95938.00;;;;5064494;28;20314;-74
2022/09/15 10:19:54;;;;;;;1.73;1.20;;;20.40;99.90;21.50;95946.00;;;;5064974;28;20191;-73
2022/09/15 10:22:43;;;;;;;3.10;1.10;;;20.20;99.90;21.30;95942.00;;;;5066071;28;20234;-74
2022/09/15 10:25:36;;;;;;;1.50;1.17;;;20.00;99.90;21.10;95916.00;;;;5065669;28;20671;-73
2022/09/15 10:28:45;;;;;;;4.83;2.20;;;19.80;99.90;21.30;95924.00;;;;5092119;28;20215;-73
2022/09/15 10:31:34;;;;;;;1.90;1.23;;;19.70;99.90;21.30;95917.00;;;;5089483;28;20284;-74
2022/09/15 10:34:30;;;;;;;8.50;1.40;;;19.80;99.90;21.10;95907.00;;;;5073972;28;20204;-74
2022/09/15 10:37:30;;;;;;;1.30;1.20;;;19.60;99.90;21.10;95894.00;;;;5056618;28;20204;-74
2022/09/15 10:40:33;;;;;;;1.87;0.70;;;19.60;99.90;21.10;95912.00;;;;5065157;28;20274;-75
2022/09/15 10:43:39;;;;;;;2.53;1.00;;;19.60;99.90;21.00;95906.00;;;;5070257;28;20198;-74
2022/09/15 10:46:36;;;;;;;0.70;0.57;;;19.50;99.90;20.80;95912.00;;;;5064251;28;20198;-74
2022/09/15 10:49:48;;;;;;;2.70;1.00;;;19.40;99.90;20.80;95916.00;;;;5069629;28;20204;-74
2022/09/15 10:53:01;;;;;;;3.17;1.23;;;19.30;99.90;20.80;95920.00;;;;5061876;28;20199;-74
2022/09/15 10:55:59;;;;;;;2.03;1.10;;;19.30;99.90;20.70;95888.00;;;;5061995;28;20235;-74
2022/09/15 10:59:02;;;;;;;1.80;1.10;;;19.20;99.90;20.80;95883.00;;;;5050147;28;20688;-74
2022/09/15 11:02:15;;;;;;;2.80;1.40;;;19.20;99.90;20.90;95873.00;;;;5053109;28;20223;-74
2022/09/15 11:05:24;;;;;;;1.20;1.10;;;19.20;99.90;20.80;95865.00;;;;5064261;28;20214;-74
2022/09/15 11:09:02;;;;;;;1.43;0.83;;;19.10;99.90;20.60;95887.00;;;;5067474;28;20513;-76
2022/09/15 11:12:09;;;;;;;0.90;0.70;;;19.10;99.90;20.40;95915.00;;;;5056025;28;20607;-75
2022/09/15 11:15:17;;;;;;;3.50;1.00;;;19.00;99.90;20.30;95912.00;;;;5069522;28;20196;-74
2022/09/15 11:18:29;;;;;;;1.50;1.10;;;18.90;99.90;20.30;95908.00;;;;5065484;28;20227;-74
2022/09/15 11:21:25;;;;;;;2.13;0.63;;;18.80;99.90;20.40;95914.00;;;;5085653;28;20269;-74
2022/09/15 11:24:31;;;;;;;1.03;0.80;;;18.80;99.90;20.40;95921.00;;;;5066526;28;20256;-75
2022/09/15 11:27:25;;;;;;;1.00;0.77;;;18.80;99.90;20.40;95928.00;;;;5068912;28;20831;-75
2022/09/15 11:30:18;;;;;;;1.37;0.70;;;18.80;99.90;20.50;95922.00;;;;5088721;28;20296;-74
2022/09/15 11:33:17;;;;;;;0.70;0.67;;;18.80;99.90;20.50;95920.00;;;;5072027;28;20916;-74
2022/09/15 11:36:13;;;;;;;1.13;0.87;;;18.80;99.90;20.50;95925.00;;;;5069141;28;20558;-73
2022/09/15 11:39:12;;;;;;;0.80;0.60;;;18.80;99.90;20.50;95922.00;;;;5070011;28;20208;-73
2022/09/15 11:42:08;;;;;;;1.50;0.60;;;18.80;99.90;20.50;95915.00;;;;5074502;28;20219;-73
2022/09/15 11:44:58;;;;;;;1.57;0.50;;;18.80;99.90;20.50;95899.00;;;;5089295;28;20655;-74
2022/09/15 11:47:51;;;;;;;0.40;0.40;;;18.80;99.90;20.50;95877.00;;;;5061208;28;20246;-73
2022/09/15 11:50:45;;;;;;;3.67;1.23;;;18.90;99.90;20.70;95861.00;;;;5069571;28;20258;-73
2022/09/15 11:53:39;;;;;;;1.20;0.63;;;18.90;99.90;20.90;95861.00;;;;5058851;28;20215;-73
2022/09/15 11:56:34;;;;;;;0.60;0.60;;;19.00;99.90;21.10;95848.00;;;;5069178;28;20236;-73
2022/09/15 11:59:31;;;;;;;0.77;0.60;;;19.10;99.90;21.60;95824.00;;;;5062079;28;20278;-73
2022/09/15 12:02:26;;;;;;;1.33;0.70;;;19.30;99.90;21.80;95796.00;;;;5065614;28;20219;-74
2022/09/15 12:05:19;;;;;;;1.00;0.90;;;19.60;99.90;21.90;95783.00;;;;5064656;28;20234;-73
2022/09/15 12:08:17;;;;;;;2.67;0.87;;;19.90;99.90;22.70;95766.00;;;;5047051;28;20215;-73
2022/09/15 12:11:12;;;;;;;1.10;0.93;;;20.20;99.90;23.00;95759.00;;;;5071364;28;20203;-72
2022/09/15 12:14:03;;;;;;;0.73;0.60;;;20.60;99.90;23.80;95774.00;;;;5088156;28;20234;-74
2022/09/15 12:16:52;;;;;;;1.50;0.90;;;21.00;99.90;23.60;95794.00;;;;5088109;28;20712;-73
2022/09/15 12:19:54;;;;;;;2.83;0.93;;;21.30;99.90;23.50;95788.00;;;;5087443;28;20247;-74
2022/09/15 12:22:50;;;;;;;1.50;1.27;;;21.40;99.90;23.40;95788.00;;;;5079547;28;20305;-74
2022/09/15 12:25:59;;;;;;;1.33;1.23;;;21.50;99.90;22.70;95793.00;;;;5070548;28;20196;-73
2022/09/15 12:28:54;;;;;;;1.37;0.97;;;21.40;99.90;22.70;95794.00;;;;5091317;28;20215;-73
2022/09/15 12:31:45;;;;;;;1.23;1.07;;;21.30;99.90;22.00;95799.00;;;;5086613;28;20203;-74
2022/09/15 12:34:37;;;;;;;0.90;0.80;;;21.00;99.90;22.30;95800.00;;;;5087022;28;20840;-74
2022/09/15 12:37:30;;;;;;;1.60;1.13;;;20.90;99.90;22.40;95782.00;;;;5086502;28;20231;-74
2022/09/15 12:40:34;;;;;;;2.37;1.20;;;20.80;99.90;22.20;95775.00;;;;5084305;28;20199;-74
2022/09/15 12:43:26;;;;;;;3.43;1.20;;;20.70;99.90;22.60;95759.00;;;;5085829;28;20215;-75
2022/09/15 12:46:18;;;;;;;1.27;0.83;;;20.70;99.90;23.30;95761.00;;;;5087835;28;20203;-74
2022/09/15 12:49:18;;;;;;;1.17;1.00;;;20.90;99.90;24.00;95763.00;;;;5086694;28;20690;-75
2022/09/15 12:52:08;;;;;;;2.20;1.10;;;21.40;99.90;23.20;95774.00;;;;5084519;28;20241;-74